Time;durP1;ratioP1;P1;durP2;ratioP2;P2;SDS_P1;SDS_P2;PMS_P1;PMS_P2;Temp;Humidity;BMP_temperature;BMP_pressure;BME280_temperature;BME280_humidity;BME280_pressure;Samples;Min_cycle;Max_cycle;Signal;HPM_P1;HPM_P2
2022/11/06 00:01:41;;;;;;;10.43;2.85;;;;;;;12.66;64.66;101557.36;1735893;82;25921;-62
2022/11/06 00:04:08;;;;;;;8.48;3.15;;;;;;;12.61;64.71;101559.61;1756066;81;25708;-62
2022/11/06 00:06:47;;;;;;;11.05;3.20;;;;;;;12.60;64.63;101560.59;1738529;81;25801;-62
2022/11/06 00:09:20;;;;;;;6.95;2.70;;;;;;;12.57;64.65;101564.05;1735788;82;25778;-62
2022/11/06 00:11:49;;;;;;;9.13;3.27;;;;;;;12.57;64.57;101569.44;1734727;82;27594;-62
2022/11/06 00:14:17;;;;;;;12.53;3.20;;;;;;;12.55;64.63;101570.90;1734900;82;25515;-62
2022/11/06 00:16:45;;;;;;;17.15;3.02;;;;;;;12.57;64.63;101578.38;1734941;82;25795;-62
2022/11/06 00:19:14;;;;;;;5.22;2.58;;;;;;;12.60;64.73;101579.48;1735812;82;26425;-62
2022/11/06 00:21:41;;;;;;;9.25;3.02;;;;;;;12.59;64.62;101576.42;1735412;82;25903;-62
2022/11/06 00:24:10;;;;;;;4.92;2.75;;;;;;;12.60;64.52;101576.78;1736031;82;27504;-62
2022/11/06 00:26:37;;;;;;;8.48;2.95;;;;;;;12.60;64.53;101574.09;1735307;82;25733;-62
2022/11/06 00:29:05;;;;;;;7.30;2.58;;;;;;;12.62;64.49;101573.47;1735429;82;25720;-62
2022/11/06 00:31:35;;;;;;;12.88;3.02;;;;;;;12.62;64.16;101572.59;1735220;82;26351;-62
2022/11/06 00:34:06;;;;;;;11.55;2.92;;;;;;;12.59;63.94;101575.58;1735693;82;26058;-62
2022/11/06 00:36:33;;;;;;;7.72;2.60;;;;;;;12.61;64.09;101574.92;1735198;82;27296;-62
2022/11/06 00:39:01;;;;;;;6.83;2.92;;;;;;;12.60;64.03;101569.16;1735160;82;25448;-62
2022/11/06 00:41:28;;;;;;;6.45;3.02;;;;;;;12.61;63.84;101574.92;1736508;82;25827;-62
2022/11/06 00:43:59;;;;;;;7.83;3.40;;;;;;;12.63;63.81;101577.02;1735416;82;25718;-62
2022/11/06 00:46:27;;;;;;;5.03;3.12;;;;;;;12.64;63.60;101576.03;1712054;82;25748;-62
2022/11/06 00:48:54;;;;;;;8.60;2.67;;;;;;;12.65;63.11;101571.84;1735546;82;28378;-62
2022/11/06 00:51:26;;;;;;;9.13;3.00;;;;;;;12.61;63.11;101573.10;1735278;82;25812;-62
2022/11/06 00:53:55;;;;;;;6.62;2.92;;;;;;;12.58;63.05;101575.20;1735105;82;25497;-62
2022/11/06 00:56:23;;;;;;;10.45;3.55;;;;;;;12.53;63.05;101573.73;1735674;82;25848;-62
2022/11/06 00:58:51;;;;;;;8.03;3.00;;;;;;;12.54;62.93;101577.31;1735791;82;26023;-62
2022/11/06 01:01:25;;;;;;;9.05;3.37;;;;;;;12.48;62.81;101571.94;1724720;82;27461;-62
2022/11/06 01:03:56;;;;;;;9.75;3.20;;;;;;;12.46;62.86;101577.11;1735113;82;25477;-62
2022/11/06 01:06:26;;;;;;;7.12;3.22;;;;;;;12.45;62.76;101578.09;1734697;82;25795;-62
2022/11/06 01:08:54;;;;;;;9.55;3.50;;;;;;;12.41;62.75;101578.84;1735636;82;25750;-62
2022/11/06 01:11:34;;;;;;;4.67;3.12;;;;;;;12.37;62.82;101574.16;1735267;82;25831;-62
2022/11/06 01:14:03;;;;;;;6.60;3.30;;;;;;;12.35;62.88;101579.33;1735709;82;27469;-62
2022/11/06 01:16:31;;;;;;;10.43;3.30;;;;;;;12.29;62.95;101584.73;1735280;82;26170;-62
2022/11/06 01:18:59;;;;;;;5.47;2.83;;;;;;;12.28;63.04;101587.07;1735638;82;25814;-62
2022/11/06 01:21:31;;;;;;;7.20;2.90;;;;;;;12.27;63.11;101588.55;1736238;82;25754;-62
2022/11/06 01:24:01;;;;;;;5.08;2.75;;;;;;;12.24;63.00;101586.13;1735756;82;25800;-62
2022/11/06 01:26:29;;;;;;;7.25;2.92;;;;;;;12.21;63.13;101585.40;1735723;82;28328;-62
2022/11/06 01:28:57;;;;;;;3.83;2.67;;;;;;;12.21;63.12;101587.22;1741802;82;25504;-62
2022/11/06 01:31:27;;;;;;;6.30;3.00;;;;;;;12.19;62.88;101587.86;1752375;80;25694;-62
2022/11/06 01:33:56;;;;;;;7.65;3.40;;;;;;;12.16;62.86;101584.91;1735829;82;25950;-62
2022/11/06 01:36:25;;;;;;;9.58;2.85;;;;;;;12.15;62.60;101579.64;1736542;82;26482;-62
2022/11/06 01:38:55;;;;;;;6.55;2.98;;;;;;;12.14;62.48;101576.58;1747153;81;27667;-62
2022/11/06 01:41:30;;;;;;;9.05;3.15;;;;;;;12.12;62.28;101581.23;1746520;82;25783;-62
2022/11/06 01:44:33;;;;;;;10.20;3.52;;;;;;;12.07;62.21;101574.88;1747192;82;25786;-62
2022/11/06 01:47:04;;;;;;;10.28;3.50;;;;;;;12.04;62.09;101571.09;1747493;82;27973;-62
2022/11/06 01:49:35;;;;;;;8.45;3.35;;;;;;;12.01;61.96;101569.99;1747310;82;25735;-62
2022/11/06 01:52:09;;;;;;;4.72;3.02;;;;;;;11.97;61.79;101563.13;1746583;82;27532;-62
2022/11/06 01:54:40;;;;;;;11.12;3.45;;;;;;;11.89;61.98;101561.05;1746372;82;25727;-62
2022/11/06 01:57:08;;;;;;;10.65;3.72;;;;;;;11.79;61.88;101551.48;1746801;82;25839;-62
2022/11/06 01:59:40;;;;;;;8.40;3.35;;;;;;;11.69;62.11;101543.30;1746942;82;26408;-62
2022/11/06 02:02:07;;;;;;;12.18;3.55;;;;;;;11.64;62.16;101544.17;1746699;82;25826;-62
2022/11/06 02:04:44;;;;;;;10.40;3.40;;;;;;;11.59;62.18;101551.28;1758792;80;26803;-62
2022/11/06 02:07:12;;;;;;;5.83;3.40;;;;;;;11.51;62.35;101536.70;1746454;82;26213;-62
2022/11/06 02:09:40;;;;;;;12.28;3.77;;;;;;;11.44;62.52;101534.98;1747440;81;25913;-62
2022/11/06 02:12:32;;;;;;;7.95;3.75;;;;;;;11.38;62.75;101544.91;1738615;82;26029;-62
2022/11/06 02:15:46;;;;;;;9.55;4.40;;;;;;;11.31;62.99;101547.23;1742322;82;25812;-61
2022/11/06 02:19:01;;;;;;;8.08;3.83;;;;;;;11.28;63.11;101544.80;1746478;81;29659;-62
2022/11/06 02:21:37;;;;;;;;;;;;;;;11.25;63.41;101549.08;1748648;82;25821;-61
2022/11/06 02:24:24;;;;;;;16.23;4.00;;;;;;;11.20;63.81;101552.63;1746595;82;25757;-62
2022/11/06 02:27:19;;;;;;;8.70;3.70;;;;;;;11.17;64.17;101547.48;1745858;82;26008;-62
2022/11/06 02:30:11;;;;;;;6.05;3.27;;;;;;;11.20;64.27;101549.44;1746381;80;26103;-61
2022/11/06 02:32:43;;;;;;;8.53;3.75;;;;;;;11.22;64.28;101550.66;1742938;80;28501;-61
2022/11/06 02:35:37;;;;;;;6.55;2.98;;;;;;;11.24;64.41;101550.92;1742888;82;25925;-61
2022/11/06 02:38:21;;;;;;;10.13;3.67;;;;;;;11.26;64.42;101536.82;1743366;82;25769;-62
2022/11/06 02:40:52;;;;;;;7.97;3.75;;;;;;;11.26;64.67;101550.79;1743141;81;25675;-61
2022/11/06 02:43:24;;;;;;;16.90;3.98;;;;;;;11.27;64.54;101552.01;1743662;82;25739;-62
2022/11/06 02:46:15;;;;;;;6.58;3.55;;;;;;;11.28;64.64;101551.03;1743162;81;27490;-62
2022/11/06 02:48:50;;;;;;;10.60;3.55;;;;;;;11.28;64.66;101552.88;1742229;82;25912;-62
2022/11/06 02:51:21;;;;;;;10.28;3.85;;;;;;;11.30;64.64;101556.79;1743543;82;25470;-62
2022/11/06 02:53:49;;;;;;;15.30;4.67;;;;;;;11.31;64.50;101566.09;1742777;82;25811;-62
2022/11/06 02:56:21;;;;;;;9.85;3.58;;;;;;;11.31;64.54;101566.59;1743401;82;25900;-62
2022/11/06 02:58:59;;;;;;;9.13;4.33;;;;;;;11.29;64.55;101573.45;1742852;82;27489;-62
2022/11/06 03:01:31;;;;;;;8.23;4.03;;;;;;;11.29;64.72;101569.42;1741161;81;25774;-62
2022/11/06 03:04:03;;;;;;;10.38;4.30;;;;;;;11.30;64.71;101561.67;1758024;80;25742;-62
2022/11/06 03:06:44;;;;;;;9.43;4.30;;;;;;;11.28;64.77;101568.54;1743198;82;26419;-60
2022/11/06 03:09:21;;;;;;;7.20;3.85;;;;;;;11.29;64.91;101568.07;1743217;80;25838;-61
2022/11/06 03:12:02;;;;;;;8.93;3.70;;;;;;;11.30;65.00;101574.30;1743253;80;27452;-62
2022/11/06 03:14:34;;;;;;;9.65;3.52;;;;;;;11.33;65.28;101582.15;1742183;82;25848;-62
2022/11/06 03:17:11;;;;;;;9.98;3.20;;;;;;;11.34;65.08;101587.41;1743672;81;26236;-62
2022/11/06 03:19:53;;;;;;;12.03;3.22;;;;;;;11.39;65.36;101595.13;1743316;82;25825;-62
2022/11/06 03:22:27;;;;;;;12.45;3.37;;;;;;;11.40;65.25;101598.19;1743849;82;25798;-62
2022/11/06 03:25:20;;;;;;;10.20;4.15;;;;;;;11.46;65.49;101599.55;1744266;81;27489;-62
2022/11/06 03:28:06;;;;;;;10.75;3.05;;;;;;;11.47;65.04;101603.45;1743975;82;25490;-62
2022/11/06 03:30:41;;;;;;;7.10;3.17;;;;;;;11.48;65.15;101597.09;1723954;82;26384;-62
2022/11/06 03:33:24;;;;;;;11.45;3.33;;;;;;;11.53;65.08;101604.30;1738113;81;25823;-61
2022/11/06 03:35:56;;;;;;;6.42;3.40;;;;;;;11.59;65.12;101607.88;1738147;82;27356;-61
2022/11/06 03:38:34;;;;;;;10.48;4.30;;;;;;;11.57;64.76;101603.09;1737543;82;27524;-61
2022/11/06 03:41:04;;;;;;;6.72;3.08;;;;;;;11.61;64.81;101606.91;1735771;82;29280;-61
2022/11/06 03:43:35;;;;;;;7.15;3.80;;;;;;;11.65;64.63;101607.88;1736805;81;25755;-62
2022/11/06 03:46:06;;;;;;;6.15;3.40;;;;;;;11.66;64.61;101604.18;1738637;82;26636;-62
2022/11/06 03:48:43;;;;;;;8.00;3.27;;;;;;;11.58;64.46;101606.63;1737667;82;27354;-62
2022/11/06 03:51:21;;;;;;;7.30;3.40;;;;;;;11.48;64.56;101606.52;1737300;82;28504;-62
2022/11/06 03:53:58;;;;;;;14.80;3.98;;;;;;;11.42;64.66;101602.47;1737033;81;25791;-62
2022/11/06 03:56:42;;;;;;;11.00;3.98;;;;;;;11.37;64.95;101606.03;1738158;82;25771;-62
2022/11/06 03:59:12;;;;;;;12.60;4.45;;;;;;;11.31;65.13;101607.00;1737558;81;25809;-62
2022/11/06 04:01:43;;;;;;;13.10;4.10;;;;;;;11.27;65.29;101599.64;1737634;82;25695;-62
2022/11/06 04:04:21;;;;;;;6.37;3.55;;;;;;;11.28;65.18;101601.37;1741703;80;27385;-62
2022/11/06 04:07:08;;;;;;;6.97;3.67;;;;;;;11.27;65.16;101600.49;1734926;82;27458;-62
2022/11/06 04:15:16;;;;;;;6.40;3.02;;;;;;;11.22;65.26;101597.78;1651382;86;25909;-62
2022/11/06 04:17:45;;;;;;;4.22;3.05;;;;;;;11.25;65.26;101599.75;1651578;86;27462;-62
2022/11/06 04:21:20;;;;;;;8.60;3.42;;;;;;;11.29;65.55;101590.97;1684892;82;25562;-62
2022/11/06 04:23:25;;;;;;;7.70;3.00;;;;;;;11.33;65.51;101588.38;1733557;82;25814;-62
2022/11/06 04:29:04;;;;;;;7.15;3.20;;;;;;;11.41;65.12;101599.41;1738297;82;25657;-61
2022/11/06 04:31:59;;;;;;;10.70;3.37;;;;;;;11.38;65.32;101599.67;1734364;81;28251;-61
2022/11/06 04:34:34;;;;;;;9.73;3.08;;;;;;;11.41;65.12;101603.95;1737034;82;25769;-62
2022/11/06 04:37:09;;;;;;;9.28;3.62;;;;;;;11.43;65.09;101594.76;1737666;82;25712;-61
2022/11/06 04:39:47;;;;;;;7.62;3.50;;;;;;;11.41;65.16;101600.75;1737219;82;26592;-61
2022/11/06 04:42:41;;;;;;;6.83;3.10;;;;;;;11.41;65.05;101595.36;1736450;82;25839;-61
2022/11/06 04:45:19;;;;;;;9.48;3.37;;;;;;;11.46;64.98;101606.28;1737251;82;28329;-61
2022/11/06 04:47:50;;;;;;;11.08;3.45;;;;;;;11.42;64.71;101611.91;1715519;82;25765;-61
2022/11/06 04:50:20;;;;;;;6.30;3.75;;;;;;;11.38;64.61;101606.87;1738122;82;25725;-61
2022/11/06 04:52:50;;;;;;;6.87;3.37;;;;;;;11.36;64.63;101616.44;1738927;81;25840;-62
2022/11/06 04:55:17;;;;;;;13.32;3.90;;;;;;;11.40;64.39;101618.39;1737692;82;25853;-62
2022/11/06 04:57:44;;;;;;;6.25;3.47;;;;;;;11.41;64.31;101619.61;1737863;82;28479;-61
2022/11/06 05:00:15;;;;;;;8.13;3.55;;;;;;;11.41;64.37;101622.80;1737463;82;27321;-61
2022/11/06 05:02:46;;;;;;;7.47;3.20;;;;;;;11.45;64.13;101626.12;1741765;81;25736;-61
2022/11/06 05:05:13;;;;;;;9.43;3.33;;;;;;;11.39;64.07;101625.59;1741707;80;26820;-61
2022/11/06 05:07:40;;;;;;;6.15;3.70;;;;;;;11.38;64.00;101618.52;1737348;81;26061;-61
2022/11/06 05:10:08;;;;;;;7.45;3.83;;;;;;;11.38;64.12;101621.69;1738182;82;27630;-62
2022/11/06 05:12:36;;;;;;;8.20;3.40;;;;;;;11.37;64.05;101622.19;1737136;82;25739;-61
2022/11/06 05:15:03;;;;;;;7.28;3.77;;;;;;;11.34;64.07;101622.42;1738351;81;25682;-61
2022/11/06 05:17:30;;;;;;;10.45;3.80;;;;;;;11.30;64.05;101622.28;1737946;82;25966;-62
2022/11/06 05:19:56;;;;;;;9.30;3.20;;;;;;;11.24;64.12;101620.95;1738046;82;25693;-61
2022/11/06 05:25:09;;;;;;;9.43;3.45;;;;;;;11.18;64.41;101615.18;1733883;82;25830;-62
2022/11/06 05:27:36;;;;;;;10.45;3.10;;;;;;;11.16;64.43;101617.13;1754995;80;25767;-62
2022/11/06 05:30:05;;;;;;;8.05;2.95;;;;;;;11.15;64.44;101624.83;1751294;80;25958;-62
2022/11/06 05:32:34;;;;;;;10.43;2.83;;;;;;;11.14;64.55;101625.33;1742616;81;25720;-62
2022/11/06 05:35:01;;;;;;;7.22;3.40;;;;;;;11.15;64.51;101634.25;1721619;82;27474;-62
2022/11/06 05:37:28;;;;;;;11.25;3.45;;;;;;;11.18;64.47;101636.72;1743292;82;25711;-62
2022/11/06 05:39:55;;;;;;;5.20;3.17;;;;;;;11.18;64.26;101638.91;1744255;82;25744;-62
2022/11/06 05:42:21;;;;;;;9.08;3.35;;;;;;;11.18;64.16;101637.56;1744204;82;25784;-61
2022/11/06 05:44:53;;;;;;;8.00;3.75;;;;;;;11.19;63.97;101648.71;1742470;80;25752;-60
2022/11/06 05:47:20;;;;;;;7.67;3.55;;;;;;;11.21;63.87;101656.66;1743560;82;28321;-61
2022/11/06 05:49:47;;;;;;;9.28;3.47;;;;;;;11.21;63.88;101656.66;1744240;81;25756;-62
2022/11/06 05:52:13;;;;;;;12.10;3.42;;;;;;;11.17;63.77;101654.70;1743885;81;25538;-61
2022/11/06 05:54:45;;;;;;;8.68;3.60;;;;;;;11.19;63.77;101664.88;1743133;82;25874;-61
2022/11/06 05:57:11;;;;;;;15.45;3.62;;;;;;;11.23;63.78;101665.49;1743094;80;25743;-61
2022/11/06 05:59:38;;;;;;;17.95;4.40;;;;;;;11.22;63.69;101664.64;1743829;82;27649;-61
2022/11/06 06:02:07;;;;;;;9.68;3.40;;;;;;;11.19;63.62;101665.38;1743027;80;25728;-61
2022/11/06 06:04:34;;;;;;;8.70;3.70;;;;;;;11.22;63.61;101676.77;1762490;80;25763;-61
2022/11/06 06:07:01;;;;;;;11.08;4.03;;;;;;;11.22;63.56;101671.38;1743423;82;25781;-61
2022/11/06 06:09:27;;;;;;;7.40;2.70;;;;;;;11.22;63.32;101673.20;1743282;82;27395;-61
2022/11/06 06:11:54;;;;;;;9.30;3.25;;;;;;;11.21;63.26;101684.47;1743630;81;27544;-61
2022/11/06 06:14:21;;;;;;;5.97;3.65;;;;;;;11.21;63.22;101678.21;1742452;81;25743;-61
2022/11/06 06:16:48;;;;;;;5.03;3.25;;;;;;;11.19;63.32;101682.38;1744594;81;25764;-60
2022/11/06 06:19:18;;;;;;;7.60;3.15;;;;;;;11.18;63.34;101688.73;1744074;82;25787;-61
2022/11/06 06:21:45;;;;;;;7.62;3.02;;;;;;;11.21;63.38;101689.86;1743349;81;25798;-60
2022/11/06 06:24:12;;;;;;;6.50;3.10;;;;;;;11.23;63.33;101685.22;1743310;82;27397;-61
2022/11/06 06:26:39;;;;;;;6.60;2.90;;;;;;;11.25;62.92;101698.06;1743295;82;25749;-60
2022/11/06 06:29:06;;;;;;;10.28;4.08;;;;;;;11.24;62.91;101690.11;1743416;81;25848;-61
2022/11/06 06:31:34;;;;;;;7.60;3.30;;;;;;;11.24;62.66;101690.98;1743619;81;26693;-61
2022/11/06 06:34:02;;;;;;;6.70;2.83;;;;;;;11.19;62.31;101686.42;1735381;82;26065;-61
2022/11/06 06:36:32;;;;;;;5.40;3.20;;;;;;;11.12;62.25;101689.22;1732810;82;27699;-61
2022/11/06 06:38:58;;;;;;;6.05;3.17;;;;;;;11.05;62.36;101687.47;1734422;81;25775;-62
2022/11/06 06:41:27;;;;;;;8.23;4.22;;;;;;;11.05;62.23;101689.32;1710674;82;26752;-62
2022/11/06 06:43:54;;;;;;;11.53;4.37;;;;;;;10.98;62.17;101675.96;1734967;81;25902;-61
2022/11/06 06:46:22;;;;;;;16.32;4.40;;;;;;;10.95;62.22;101675.21;1734114;82;25797;-61
2022/11/06 06:48:49;;;;;;;5.55;3.52;;;;;;;10.94;62.20;101672.61;1734247;81;27467;-61
2022/11/06 06:51:19;;;;;;;9.25;3.70;;;;;;;10.90;62.13;101686.80;1735338;82;25719;-61
2022/11/06 06:53:47;;;;;;;12.07;4.33;;;;;;;10.83;62.28;101692.78;1733766;82;25873;-62
2022/11/06 06:56:16;;;;;;;7.53;3.70;;;;;;;10.81;62.45;101688.83;1736337;82;25908;-62
2022/11/06 06:58:43;;;;;;;7.33;3.77;;;;;;;10.79;62.51;101693.50;1745196;81;25783;-61
2022/11/06 07:01:10;;;;;;;9.63;4.65;;;;;;;10.76;62.61;101686.48;1734034;82;27609;-61
2022/11/06 07:03:38;;;;;;;13.98;4.30;;;;;;;10.78;62.66;101685.05;1746193;81;25731;-61
2022/11/06 07:06:06;;;;;;;12.70;3.90;;;;;;;10.79;62.54;101690.80;1735167;82;25833;-62
2022/11/06 07:08:33;;;;;;;8.23;4.25;;;;;;;10.76;62.65;101690.52;1725062;82;26519;-61
2022/11/06 07:11:03;;;;;;;5.78;3.35;;;;;;;10.76;62.75;101682.95;1733147;82;26211;-62
2022/11/06 07:13:29;;;;;;;4.97;3.20;;;;;;;10.79;62.80;101695.69;1734224;82;28551;-61
2022/11/06 07:15:56;;;;;;;12.35;4.28;;;;;;;10.89;62.87;101695.00;1734492;82;25712;-61
2022/11/06 07:18:23;;;;;;;14.45;3.85;;;;;;;10.90;62.58;101700.25;1734924;81;25514;-61
2022/11/06 07:20:51;;;;;;;9.78;3.58;;;;;;;10.94;62.63;101689.64;1733838;82;25912;-61
2022/11/06 07:23:18;;;;;;;9.50;3.90;;;;;;;10.99;62.55;101693.33;1735178;82;26085;-61
2022/11/06 07:25:52;;;;;;;8.33;4.28;;;;;;;11.03;62.26;101690.77;1735712;82;27476;-61
2022/11/06 07:28:20;;;;;;;8.68;4.50;;;;;;;11.05;62.15;101689.32;1737744;80;25699;-61
2022/11/06 07:30:47;;;;;;;15.03;4.20;;;;;;;11.10;61.96;101685.77;1761094;80;25786;-61
2022/11/06 07:33:14;;;;;;;8.45;4.72;;;;;;;11.13;61.87;101685.55;1713546;82;25777;-61
2022/11/06 07:35:40;;;;;;;11.88;5.12;;;;;;;11.17;61.67;101689.70;1737727;82;26267;-61
2022/11/06 07:38:07;;;;;;;10.80;4.58;;;;;;;11.23;61.66;101703.20;1737660;82;27662;-61
2022/11/06 07:40:35;;;;;;;11.12;4.35;;;;;;;11.30;61.19;101703.59;1737563;82;25957;-61
2022/11/06 07:43:05;;;;;;;6.45;4.20;;;;;;;11.33;61.12;101709.60;1738129;81;26155;-61
2022/11/06 07:45:32;;;;;;;7.37;3.77;;;;;;;11.39;60.98;101709.62;1738686;82;25802;-61
2022/11/06 07:47:59;;;;;;;6.97;4.53;;;;;;;11.44;60.77;101708.77;1738786;82;26440;-61
2022/11/06 07:50:26;;;;;;;12.20;4.70;;;;;;;11.49;60.58;101713.80;1737828;82;28123;-61
2022/11/06 07:52:54;;;;;;;8.08;4.58;;;;;;;11.51;60.67;101718.58;1737707;82;25875;-62
2022/11/06 07:55:22;;;;;;;11.35;4.87;;;;;;;11.54;60.47;101708.42;1737980;82;26418;-61
2022/11/06 07:57:48;;;;;;;11.12;6.30;;;;;;;11.55;60.30;101711.48;1737689;81;26504;-61
2022/11/06 08:00:16;;;;;;;10.48;5.35;;;;;;;11.55;60.28;101711.48;1737702;82;25997;-61
2022/11/06 08:02:44;;;;;;;12.82;5.22;;;;;;;11.55;60.32;101708.80;1733165;82;27618;-61
2022/11/06 08:05:11;;;;;;;16.17;4.78;;;;;;;11.50;60.14;101709.66;1722814;82;25779;-61
2022/11/06 08:07:38;;;;;;;10.48;4.55;;;;;;;11.39;60.36;101706.92;1738198;82;25798;-61
2022/11/06 08:10:06;;;;;;;16.97;4.78;;;;;;;11.33;60.50;101710.11;1737762;81;25927;-61
2022/11/06 08:12:33;;;;;;;10.15;5.03;;;;;;;11.26;60.71;101697.59;1738010;82;25872;-61
2022/11/06 08:14:59;;;;;;;16.97;4.97;;;;;;;11.21;60.96;101697.06;1737719;82;28287;-61
2022/11/06 08:17:29;;;;;;;12.58;4.30;;;;;;;11.19;60.99;101701.23;1732438;82;25786;-61
2022/11/06 08:19:57;;;;;;;9.48;5.08;;;;;;;11.24;61.02;101700.41;1736380;82;25686;-61
2022/11/06 08:22:23;;;;;;;8.93;4.60;;;;;;;11.31;60.82;101704.81;1738312;82;25788;-61
2022/11/06 08:24:50;;;;;;;10.28;4.53;;;;;;;11.35;60.75;101710.81;1738842;82;25848;-61
2022/11/06 08:27:17;;;;;;;11.12;4.28;;;;;;;11.39;60.76;101706.92;1737730;82;27479;-61
2022/11/06 08:29:44;;;;;;;15.80;4.97;;;;;;;11.39;60.55;101709.62;1737342;82;25727;-61
2022/11/06 08:32:11;;;;;;;11.33;5.50;;;;;;;11.42;60.60;101708.89;1737037;82;25777;-61
2022/11/06 08:34:37;;;;;;;10.68;5.50;;;;;;;11.51;60.62;101708.68;1734875;82;25809;-61
2022/11/06 08:37:04;;;;;;;12.47;5.12;;;;;;;11.57;60.38;101706.84;1735389;82;25755;-61
2022/11/06 08:39:31;;;;;;;16.37;5.10;;;;;;;11.58;60.39;101708.56;1734674;82;27469;-62
2022/11/06 08:41:58;;;;;;;9.78;5.42;;;;;;;11.68;60.30;101707.84;1735234;82;26445;-61
2022/11/06 08:44:24;;;;;;;10.03;4.53;;;;;;;11.70;60.15;101703.17;1735158;82;25851;-61
2022/11/06 08:46:51;;;;;;;12.65;5.12;;;;;;;11.73;60.15;101701.12;1735328;82;26033;-61
2022/11/06 08:49:18;;;;;;;9.20;4.65;;;;;;;11.80;60.11;101705.52;1735388;81;26145;-61
2022/11/06 08:51:45;;;;;;;10.85;4.78;;;;;;;11.90;60.22;101705.16;1735074;82;27465;-61
2022/11/06 08:54:12;;;;;;;13.70;5.58;;;;;;;12.07;59.99;101712.41;1734969;82;25527;-61
2022/11/06 08:56:39;;;;;;;10.10;5.15;;;;;;;12.17;59.68;101708.51;1735272;81;25697;-61
2022/11/06 08:59:06;;;;;;;7.95;4.80;;;;;;;12.29;59.52;101712.05;1735436;82;26161;-62
2022/11/06 09:01:33;;;;;;;7.22;4.40;;;;;;;12.39;59.09;101706.27;1735021;82;25710;-62
2022/11/06 09:04:00;;;;;;;18.30;5.50;;;;;;;12.43;58.82;101714.47;1717919;81;28145;-62
2022/11/06 09:06:27;;;;;;;9.45;4.95;;;;;;;12.49;58.74;101722.56;1701941;83;25972;-62
2022/11/06 09:08:54;;;;;;;13.55;5.67;;;;;;;12.59;58.74;101714.58;1735481;82;25821;-62
2022/11/06 09:11:21;;;;;;;12.47;4.33;;;;;;;12.65;58.47;101723.01;1725134;82;25863;-62
2022/11/06 09:13:47;;;;;;;17.67;6.28;;;;;;;12.70;58.33;101719.93;1735896;82;25779;-61
2022/11/06 09:16:14;;;;;;;8.25;5.20;;;;;;;12.68;58.07;101725.97;1736264;82;27329;-62
2022/11/06 09:18:41;;;;;;;12.55;5.28;;;;;;;12.67;58.22;101722.91;1734928;82;25491;-62
2022/11/06 09:21:08;;;;;;;16.30;5.62;;;;;;;12.72;58.09;101716.62;1735394;81;26225;-62
2022/11/06 09:23:35;;;;;;;14.45;5.78;;;;;;;12.81;58.15;101719.06;1735247;82;25812;-62
2022/11/06 09:26:03;;;;;;;11.60;4.50;;;;;;;12.88;58.10;101720.73;1714883;82;25716;-62
2022/11/06 09:28:29;;;;;;;15.32;4.90;;;;;;;12.89;57.83;101717.05;1735883;80;28104;-61
2022/11/06 09:30:56;;;;;;;17.82;5.17;;;;;;;12.87;57.66;101721.72;1735451;82;25799;-62
2022/11/06 09:33:22;;;;;;;16.12;5.67;;;;;;;12.86;57.78;101718.68;1719383;82;25801;-62
2022/11/06 09:35:49;;;;;;;10.40;5.28;;;;;;;12.87;57.95;101714.97;1704156;84;25782;-62
2022/11/06 09:38:17;;;;;;;13.93;5.45;;;;;;;12.92;58.04;101716.30;1737354;82;25773;-61
2022/11/06 09:41:01;;;;;;;10.58;4.78;;;;;;;12.98;57.89;101712.23;1739495;82;27317;-62
2022/11/06 09:43:34;;;;;;;;;;;;;;;13.11;57.92;101707.52;1740824;82;25700;-62
2022/11/06 09:46:39;;;;;;;10.25;5.10;;;;;;;13.25;57.84;101709.05;1740653;80;25684;-63
2022/11/06 09:49:23;;;;;;;12.40;4.55;;;;;;;13.35;57.81;101709.11;1750947;80;25985;-62
2022/11/06 09:52:18;;;;;;;19.90;5.70;;;;;;;13.43;57.39;101712.55;1738695;82;25784;-62
2022/11/06 09:54:50;;;;;;;12.82;5.05;;;;;;;13.48;57.06;101708.94;1739506;82;27566;-62
2022/11/06 09:57:21;;;;;;;10.40;5.15;;;;;;;13.46;57.49;101711.79;1737442;82;25676;-62
2022/11/06 09:59:50;;;;;;;8.20;4.55;;;;;;;13.53;57.33;101711.25;1736661;82;25756;-62
2022/11/06 10:02:35;;;;;;;14.13;5.20;;;;;;;13.63;57.35;101706.77;1737632;82;25807;-62
2022/11/06 10:05:26;;;;;;;14.35;5.00;;;;;;;13.76;57.33;101700.63;1724079;82;25764;-62
2022/11/06 10:07:57;;;;;;;11.65;5.05;;;;;;;13.85;57.18;101702.20;1738645;82;27455;-62
2022/11/06 10:10:31;;;;;;;16.20;7.08;;;;;;;13.91;56.94;101701.13;1737473;82;25749;-62
2022/11/06 10:13:24;;;;;;;13.18;6.22;;;;;;;13.99;57.18;101706.36;1736559;81;25875;-62
2022/11/06 10:16:02;;;;;;;11.45;4.75;;;;;;;14.01;56.60;101706.61;1726715;82;25951;-62
2022/11/06 10:18:36;;;;;;;15.38;5.12;;;;;;;14.07;56.71;101699.29;1735229;82;27338;-62
2022/11/06 10:21:20;;;;;;;9.25;5.33;;;;;;;14.15;56.79;101691.85;1737791;82;27552;-61
2022/11/06 10:23:59;;;;;;;13.32;5.45;;;;;;;14.18;56.51;101692.06;1738244;81;25731;-61
2022/11/06 10:26:36;;;;;;;10.80;5.53;;;;;;;14.30;56.72;101696.36;1736939;82;25700;-61
2022/11/06 10:29:17;;;;;;;10.53;5.47;;;;;;;14.48;56.20;101692.50;1735226;82;26444;-61
2022/11/06 10:32:13;;;;;;;10.78;5.25;;;;;;;14.60;55.99;101690.52;1735375;82;25780;-62
2022/11/06 10:34:47;;;;;;;12.68;4.85;;;;;;;14.65;55.48;101681.98;1735590;82;27466;-60
2022/11/06 10:37:30;;;;;;;12.37;4.95;;;;;;;14.65;55.54;101681.98;1764137;80;25766;-61
2022/11/06 10:39:58;;;;;;;21.50;5.35;;;;;;;14.70;55.11;101680.59;1741249;81;25744;-61
2022/11/06 10:42:30;;;;;;;11.95;5.22;;;;;;;14.64;55.24;101678.91;1770832;81;25785;-61
2022/11/06 10:45:01;;;;;;;10.15;5.22;;;;;;;14.63;55.50;101680.77;1735134;82;25715;-61
2022/11/06 10:47:35;;;;;;;11.75;5.50;;;;;;;14.70;55.24;101674.34;1734658;82;27495;-61
2022/11/06 10:50:07;;;;;;;16.00;5.95;;;;;;;14.70;55.49;101679.23;1735056;82;25863;-61
2022/11/06 10:52:54;;;;;;;13.05;6.12;;;;;;;14.70;55.58;101674.34;1735411;82;25747;-61
2022/11/06 10:55:41;;;;;;;15.68;6.85;;;;;;;14.71;55.72;101676.89;1736947;82;25898;-61
2022/11/06 10:58:16;;;;;;;16.60;7.55;;;;;;;14.82;55.86;101669.12;1733847;82;25795;-61
2022/11/06 11:00:43;;;;;;;13.00;5.90;;;;;;;14.93;55.49;101670.82;1736093;82;27488;-61
2022/11/06 11:03:28;;;;;;;12.78;6.87;;;;;;;14.99;55.38;101668.92;1747211;80;25879;-61
2022/11/06 11:05:55;;;;;;;11.10;5.58;;;;;;;14.93;55.40;101673.53;1735668;81;25488;-60
2022/11/06 11:08:49;;;;;;;13.13;6.42;;;;;;;14.83;55.47;101663.22;1734033;82;25880;-61
2022/11/06 11:11:26;;;;;;;15.58;5.45;;;;;;;14.74;55.66;101664.07;1735005;82;25957;-61
2022/11/06 11:14:03;;;;;;;13.32;5.22;;;;;;;14.70;55.74;101664.34;1734966;82;27511;-61
2022/11/06 11:16:34;;;;;;;13.93;5.53;;;;;;;14.55;56.15;101661.67;1735435;82;25953;-61
2022/11/06 11:19:24;;;;;;;14.13;6.83;;;;;;;14.50;56.51;101670.69;1734579;82;25788;-61
2022/11/06 11:21:58;;;;;;;16.07;5.50;;;;;;;14.48;56.74;101667.27;1735660;81;25797;-61
2022/11/06 11:24:26;;;;;;;17.10;6.55;;;;;;;14.47;56.92;101666.93;1734308;82;25795;-61
2022/11/06 11:27:03;;;;;;;14.15;7.40;;;;;;;14.42;57.05;101664.64;1735686;80;27562;-61
2022/11/06 11:29:47;;;;;;;16.85;6.03;;;;;;;14.43;57.12;101664.13;1735743;82;25784;-61
2022/11/06 11:32:18;;;;;;;17.95;6.70;;;;;;;14.39;57.28;101668.45;1736878;82;25714;-61
2022/11/06 11:34:48;;;;;;;13.53;6.15;;;;;;;14.32;57.52;101674.08;1697411;81;26729;-61
2022/11/06 11:37:32;;;;;;;12.53;6.25;;;;;;;14.34;57.33;101668.55;1707398;83;25821;-61
2022/11/06 11:40:34;;;;;;;17.85;7.62;;;;;;;14.25;57.64;101668.87;1731884;82;27451;-61
2022/11/06 11:43:27;;;;;;;15.15;6.25;;;;;;;14.17;57.75;101668.70;1734762;81;26290;-62
2022/11/06 11:46:17;;;;;;;13.75;6.92;;;;;;;14.09;57.92;101671.61;1734262;82;25961;-62
2022/11/06 11:48:56;;;;;;;10.23;6.10;;;;;;;14.05;58.09;101666.09;1707589;82;25798;-61
2022/11/06 11:51:43;;;;;;;17.27;6.72;;;;;;;14.04;58.21;101669.79;1733253;82;25790;-62
2022/11/06 11:54:18;;;;;;;18.00;6.97;;;;;;;14.04;58.25;101665.73;1734515;82;29595;-61
2022/11/06 11:56:55;;;;;;;12.18;7.40;;;;;;;14.02;58.43;101670.45;1735229;82;25707;-62
2022/11/06 11:59:45;;;;;;;12.50;6.47;;;;;;;14.01;58.50;101662.45;1734978;82;25726;-61